createdAt,value
2018-11-26T00:00:35.996Z,28.50
2018-11-26T00:03:08.646Z,26.80
2018-11-26T00:05:39.033Z,29.30
2018-11-26T00:08:09.150Z,26.97
2018-11-26T00:11:40.639Z,26.60
2018-11-26T00:14:09.149Z,26.43
2018-11-26T00:16:37.602Z,29.17
2018-11-26T00:19:06.530Z,27.57
2018-11-26T00:21:35.052Z,26.23
2018-11-26T00:24:03.590Z,28.20
2018-11-26T00:26:32.050Z,26.77
2018-11-26T00:29:00.545Z,26.97
2018-11-26T00:31:29.035Z,26.17
2018-11-26T00:33:57.522Z,28.70
2018-11-26T00:36:26.141Z,27.30
2018-11-26T00:38:54.729Z,28.33
2018-11-26T00:41:23.203Z,30.10
2018-11-26T00:43:51.723Z,28.50
2018-11-26T00:46:20.782Z,28.80
2018-11-26T00:48:48.822Z,27.00
2018-11-26T00:51:17.306Z,28.40
2018-11-26T00:53:45.971Z,29.33
2018-11-26T00:56:14.553Z,27.40
2018-11-26T00:58:43.079Z,30.10
2018-11-26T01:01:11.538Z,28.70
2018-11-26T01:03:40.050Z,29.10
2018-11-26T01:06:08.519Z,27.90
2018-11-26T01:08:37.011Z,34.40
2018-11-26T01:11:05.999Z,27.60
2018-11-26T01:13:34.642Z,29.40
2018-11-26T01:16:03.181Z,32.47
2018-11-26T01:18:31.649Z,30.80
2018-11-26T01:21:00.113Z,32.17
2018-11-26T01:23:28.607Z,28.30
2018-11-26T01:25:57.129Z,29.57
2018-11-26T01:28:25.607Z,29.80
2018-11-26T01:30:54.079Z,28.80
2018-11-26T01:33:22.606Z,30.73
2018-11-26T01:35:51.109Z,30.40
2018-11-26T01:38:19.570Z,30.37
2018-11-26T01:40:51.499Z,31.70
2018-11-26T01:43:20.890Z,29.63
2018-11-26T01:45:49.423Z,31.00
2018-11-26T01:48:17.948Z,31.60
2018-11-26T01:50:46.405Z,29.70
2018-11-26T01:53:14.872Z,31.40
2018-11-26T01:55:43.376Z,30.57
2018-11-26T01:58:11.904Z,30.30
2018-11-26T02:00:40.355Z,30.23
2018-11-26T02:03:08.806Z,29.10
2018-11-26T02:05:37.286Z,32.67
2018-11-26T02:08:06.786Z,30.53
2018-11-26T02:10:35.298Z,29.50
2018-11-26T02:13:04.095Z,32.47
2018-11-26T02:15:37.774Z,30.97
2018-11-26T02:18:06.751Z,30.70
2018-11-26T02:20:36.249Z,31.47
2018-11-26T02:23:04.825Z,34.30
2018-11-26T02:25:33.422Z,32.03
2018-11-26T02:28:01.911Z,30.60
2018-11-26T02:30:30.996Z,31.87
2018-11-26T02:32:59.557Z,31.63
2018-11-26T02:35:28.068Z,31.20
2018-11-26T02:37:56.540Z,31.40
2018-11-26T02:40:27.242Z,29.77
2018-11-26T02:42:55.803Z,32.07
2018-11-26T02:45:24.413Z,28.63
2018-11-26T02:47:52.951Z,29.67
2018-11-26T02:50:21.454Z,29.40
2018-11-26T02:52:49.911Z,30.20
2018-11-26T02:55:18.406Z,27.20
2018-11-26T02:57:46.918Z,28.37
2018-11-26T03:00:15.458Z,28.80
2018-11-26T03:02:43.946Z,28.50
2018-11-26T03:05:13.353Z,30.20
2018-11-26T03:07:41.900Z,27.90
2018-11-26T03:10:10.887Z,28.00
2018-11-26T03:12:39.714Z,29.83
2018-11-26T03:15:11.206Z,25.53
2018-11-26T03:17:40.007Z,28.03
2018-11-26T03:20:09.728Z,28.60
2018-11-26T03:22:38.320Z,26.83
2018-11-26T03:25:08.395Z,29.13
2018-11-26T03:27:36.922Z,28.87
2018-11-26T03:30:11.999Z,25.83
2018-11-26T03:32:40.590Z,26.97
2018-11-26T03:35:09.955Z,24.47
2018-11-26T03:37:38.634Z,23.43
2018-11-26T03:40:11.234Z,26.20
2018-11-26T03:42:39.856Z,24.00
2018-11-26T03:45:11.150Z,23.87
2018-11-26T03:47:39.697Z,25.10
2018-11-26T03:50:08.675Z,23.70
2018-11-26T03:52:37.218Z,23.40
2018-11-26T03:55:07.246Z,26.63
2018-11-26T03:57:35.725Z,23.60
2018-11-26T04:00:04.468Z,23.90
2018-11-26T04:02:32.948Z,29.33
2018-11-26T04:05:01.492Z,26.30
2018-11-26T04:07:30.002Z,24.43
2018-11-26T04:09:58.497Z,26.10
2018-11-26T04:12:27.010Z,25.97
2018-11-26T04:14:55.541Z,26.23
2018-11-26T04:17:24.084Z,23.20
2018-11-26T04:19:52.536Z,25.43
2018-11-26T04:22:21.157Z,22.50
2018-11-26T04:24:49.727Z,27.10
2018-11-26T04:27:18.303Z,24.03
2018-11-26T04:29:46.772Z,28.00
2018-11-26T04:32:15.267Z,25.17
2018-11-26T04:34:43.946Z,24.00
2018-11-26T04:37:12.415Z,27.10
2018-11-26T04:39:40.898Z,25.30
2018-11-26T04:42:09.396Z,26.60
2018-11-26T04:44:37.908Z,25.60
2018-11-26T04:47:06.492Z,24.90
2018-11-26T04:49:34.975Z,24.40
2018-11-26T04:52:03.503Z,25.27
2018-11-26T04:54:31.997Z,27.50
2018-11-26T04:57:00.488Z,24.60
2018-11-26T04:59:29.044Z,28.00
2018-11-26T05:01:57.757Z,24.63
2018-11-26T05:04:26.276Z,27.90
2018-11-26T05:06:54.753Z,26.77
2018-11-26T05:09:23.263Z,29.03
2018-11-26T05:11:51.717Z,27.57
2018-11-26T05:14:20.268Z,31.07
2018-11-26T05:16:48.850Z,31.07
2018-11-26T05:19:17.386Z,28.10
2018-11-26T05:21:45.874Z,27.87
2018-11-26T05:24:14.399Z,28.47
2018-11-26T05:26:42.894Z,29.43
2018-11-26T05:29:11.396Z,31.70
2018-11-26T05:31:39.926Z,33.43
2018-11-26T05:34:08.427Z,33.43
2018-11-26T05:36:37.015Z,34.43
2018-11-26T05:39:08.349Z,35.80
2018-11-26T05:41:37.104Z,35.03
2018-11-26T05:44:05.742Z,32.27
2018-11-26T05:46:34.263Z,33.17
2018-11-26T05:49:02.761Z,36.17
2018-11-26T05:51:31.218Z,32.80
2018-11-26T05:53:59.754Z,34.30
2018-11-26T05:56:28.241Z,35.67
2018-11-26T05:58:56.759Z,32.20
2018-11-26T06:01:25.263Z,35.40
2018-11-26T06:03:53.757Z,34.00
2018-11-26T06:06:22.800Z,32.70
2018-11-26T06:08:51.365Z,32.10
2018-11-26T06:11:19.905Z,32.70
2018-11-26T06:13:48.404Z,37.70
2018-11-26T06:16:16.947Z,33.13
2018-11-26T06:18:45.506Z,32.23
2018-11-26T06:21:15.063Z,31.93
2018-11-26T06:23:43.523Z,34.67
2018-11-26T06:26:12.047Z,31.10
2018-11-26T06:28:40.582Z,34.57
2018-11-26T06:31:10.331Z,33.27
2018-11-26T06:33:39.035Z,32.87
2018-11-26T06:36:07.559Z,32.43
2018-11-26T06:38:36.107Z,32.43
2018-11-26T06:41:04.734Z,32.80
2018-11-26T06:43:33.385Z,37.60
2018-11-26T06:46:02.676Z,34.27
2018-11-26T06:48:31.135Z,34.87
2018-11-26T06:50:59.610Z,34.20
2018-11-26T06:53:28.189Z,36.37
2018-11-26T06:55:56.856Z,35.00
2018-11-26T06:58:25.491Z,32.03
2018-11-26T07:00:54.142Z,36.23
2018-11-26T07:03:22.705Z,36.60
2018-11-26T07:05:51.218Z,33.93
2018-11-26T07:08:19.768Z,35.30
2018-11-26T07:10:48.247Z,35.10
2018-11-26T07:13:16.784Z,32.23
2018-11-26T07:15:45.760Z,35.77
2018-11-26T07:18:14.295Z,34.70
2018-11-26T07:20:42.765Z,33.53
2018-11-26T07:23:17.769Z,38.43
2018-11-26T07:25:46.265Z,35.50
2018-11-26T07:28:15.133Z,34.80
2018-11-26T07:30:43.605Z,33.83
2018-11-26T07:33:12.117Z,35.87
2018-11-26T07:35:40.601Z,34.80
2018-11-26T07:38:09.053Z,35.53
2018-11-26T07:40:37.550Z,35.13
2018-11-26T07:43:09.393Z,34.20
2018-11-26T07:45:38.114Z,35.43
2018-11-26T07:48:07.923Z,35.17
2018-11-26T07:50:36.927Z,32.47
2018-11-26T07:53:07.894Z,34.73
2018-11-26T07:55:36.739Z,34.97
2018-11-26T07:58:05.288Z,32.70
2018-11-26T08:00:33.759Z,33.50
2018-11-26T08:03:02.297Z,34.60
2018-11-26T08:05:30.814Z,32.67
2018-11-26T08:07:59.289Z,33.20
2018-11-26T08:10:28.184Z,33.43
2018-11-26T08:12:56.945Z,31.97
2018-11-26T08:15:26.639Z,35.23
2018-11-26T08:17:55.219Z,32.63
2018-11-26T08:20:23.704Z,34.10
2018-11-26T08:22:52.156Z,35.00
2018-11-26T08:25:21.707Z,33.20
2018-11-26T08:27:50.686Z,32.40
2018-11-26T08:30:22.238Z,33.57
2018-11-26T08:32:52.712Z,34.93
2018-11-26T08:35:21.252Z,33.90
2018-11-26T08:38:54.590Z,34.63
2018-11-26T08:41:27.247Z,33.77
2018-11-26T08:43:57.607Z,34.73
2018-11-26T08:46:36.862Z,36.10
2018-11-26T08:49:12.290Z,35.77
2018-11-26T08:51:40.809Z,35.67
2018-11-26T08:54:09.324Z,33.23
2018-11-26T08:56:37.778Z,36.33
2018-11-26T08:59:06.291Z,36.40
2018-11-26T09:01:39.098Z,35.00
2018-11-26T09:04:11.054Z,34.47
2018-11-26T09:06:39.507Z,38.07
2018-11-26T09:09:09.932Z,34.50
2018-11-26T09:11:38.457Z,34.57
2018-11-26T09:14:07.336Z,32.83
2018-11-26T09:16:35.933Z,37.63
2018-11-26T09:19:04.903Z,38.30
2018-11-26T09:21:33.355Z,35.87
2018-11-26T09:24:01.941Z,34.43
2018-11-26T09:26:30.346Z,37.40
2018-11-26T09:28:58.778Z,35.10
2018-11-26T09:31:27.258Z,35.37
2018-11-26T09:33:55.710Z,34.10
2018-11-26T09:36:24.194Z,36.40
2018-11-26T09:38:52.816Z,39.00
2018-11-26T09:41:21.383Z,34.57
2018-11-26T09:43:49.838Z,38.37
2018-11-26T09:46:18.290Z,36.47
2018-11-26T09:48:46.754Z,38.00
2018-11-26T09:51:15.253Z,36.07
2018-11-26T09:53:43.724Z,39.27
2018-11-26T09:56:12.268Z,38.20
2018-11-26T09:58:40.699Z,36.67
2018-11-26T10:01:15.905Z,39.00
2018-11-26T10:03:44.337Z,37.93
2018-11-26T10:06:12.839Z,37.23
2018-11-26T10:08:41.300Z,36.30
2018-11-26T10:11:10.130Z,36.60
2018-11-26T10:13:38.623Z,38.97
2018-11-26T10:16:07.877Z,39.00
2018-11-26T10:18:36.327Z,39.00
2018-11-26T10:21:04.800Z,37.83
2018-11-26T10:23:33.265Z,37.43
2018-11-26T10:26:01.771Z,38.77
2018-11-26T10:28:30.227Z,36.27
2018-11-26T10:30:58.742Z,35.13
2018-11-26T10:33:27.231Z,35.30
2018-11-26T10:35:55.740Z,32.97
2018-11-26T10:38:24.197Z,34.73
2018-11-26T10:40:52.663Z,33.47
2018-11-26T10:43:21.187Z,33.70
2018-11-26T10:45:49.716Z,33.93
2018-11-26T10:48:18.229Z,32.67
2018-11-26T10:50:46.682Z,33.47
2018-11-26T10:53:15.374Z,31.67
2018-11-26T10:55:43.889Z,33.13
2018-11-26T10:58:12.379Z,31.27
2018-11-26T11:00:46.014Z,33.50
2018-11-26T11:03:14.529Z,35.00
2018-11-26T11:05:43.034Z,31.40
2018-11-26T11:08:11.562Z,33.60
2018-11-26T11:10:40.628Z,34.13
2018-11-26T11:13:09.111Z,34.50
2018-11-26T11:15:37.872Z,32.90
2018-11-26T11:18:07.591Z,33.60
2018-11-26T11:20:36.227Z,33.23
2018-11-26T11:23:04.805Z,33.37
2018-11-26T11:25:33.363Z,33.47
2018-11-26T11:28:01.849Z,34.80
2018-11-26T11:30:30.750Z,33.83
2018-11-26T11:32:59.464Z,34.83
2018-11-26T11:35:28.038Z,34.80
2018-11-26T11:37:56.616Z,35.17
2018-11-26T11:40:28.616Z,35.07
2018-11-26T11:42:57.798Z,31.73
2018-11-26T11:45:27.306Z,33.70
2018-11-26T11:47:55.840Z,33.17
2018-11-26T11:50:24.340Z,35.13
2018-11-26T11:52:52.825Z,32.90
2018-11-26T11:55:23.623Z,31.50
2018-11-26T11:57:52.441Z,32.80
2018-11-26T12:00:34.686Z,30.83
2018-11-26T12:03:05.544Z,35.30
2018-11-26T12:05:34.019Z,36.10
2018-11-26T12:08:02.545Z,34.83
2018-11-26T12:10:30.991Z,33.57
2018-11-26T12:12:59.629Z,36.70
2018-11-26T12:15:28.144Z,32.53
2018-11-26T12:17:56.643Z,34.90
2018-11-26T12:20:25.191Z,33.47
2018-11-26T12:22:53.636Z,35.27
2018-11-26T12:25:22.323Z,36.13
2018-11-26T12:27:50.834Z,35.23
2018-11-26T12:30:24.633Z,36.20
2018-11-26T12:32:53.156Z,36.53
2018-11-26T12:35:21.741Z,34.40
2018-11-26T12:37:50.395Z,35.30
2018-11-26T12:40:22.039Z,34.60
2018-11-26T12:42:52.515Z,36.03
2018-11-26T12:45:23.204Z,33.63
2018-11-26T12:47:51.711Z,33.67
2018-11-26T12:50:20.255Z,33.33
2018-11-26T12:52:48.778Z,35.30
2018-11-26T12:55:18.291Z,35.50
2018-11-26T12:57:47.745Z,36.63
2018-11-26T13:00:21.425Z,37.00
2018-11-26T13:02:53.368Z,34.70
2018-11-26T13:05:21.948Z,35.07
2018-11-26T13:07:50.490Z,35.97
2018-11-26T13:10:20.572Z,36.37
2018-11-26T13:12:49.742Z,31.80
2018-11-26T13:15:22.224Z,35.87
2018-11-26T13:17:50.825Z,34.63
2018-11-26T13:20:21.968Z,37.50
2018-11-26T13:22:50.983Z,34.20
2018-11-26T13:25:21.723Z,33.73
2018-11-26T13:27:52.043Z,34.13
2018-11-26T13:30:30.254Z,31.40
2018-11-26T13:32:59.971Z,32.13
2018-11-26T13:35:28.470Z,34.87
2018-11-26T13:37:58.098Z,34.47
2018-11-26T13:40:26.475Z,33.53
2018-11-26T13:42:54.979Z,33.60
2018-11-26T13:45:30.289Z,32.13
2018-11-26T13:47:58.854Z,35.73
2018-11-26T13:50:28.963Z,35.80
2018-11-26T13:52:57.592Z,34.03
2018-11-26T13:55:26.090Z,32.73
2018-11-26T13:57:54.576Z,33.10
2018-11-26T14:00:23.140Z,30.80
2018-11-26T14:02:51.619Z,31.57
2018-11-26T14:05:21.307Z,32.30
2018-11-26T14:07:54.625Z,35.20
2018-11-26T14:10:25.451Z,34.70
2018-11-26T14:13:07.867Z,30.93
2018-11-26T14:15:36.434Z,34.20
2018-11-26T14:18:06.267Z,33.10
2018-11-26T14:20:34.991Z,32.80
2018-11-26T14:25:36.566Z,32.67
2018-11-26T14:30:46.610Z,34.30
2018-11-26T14:33:15.110Z,32.63
2018-11-26T14:35:43.573Z,32.87
2018-11-26T14:38:12.070Z,31.40
2018-11-26T14:40:44.231Z,30.80
2018-11-26T14:43:12.968Z,31.57
2018-11-26T14:45:41.457Z,30.60
2018-11-26T14:48:09.962Z,30.23
2018-11-26T14:50:38.547Z,31.60
2018-11-26T14:53:13.511Z,31.10
2018-11-26T14:55:42.007Z,30.47
2018-11-26T14:58:10.949Z,32.43
2018-11-26T15:00:39.504Z,29.70
2018-11-26T15:03:09.258Z,29.17
2018-11-26T15:05:39.503Z,30.43
2018-11-26T15:08:07.983Z,30.17
2018-11-26T15:10:36.499Z,32.53
2018-11-26T15:13:05.993Z,31.77
2018-11-26T15:15:34.451Z,31.20
2018-11-26T15:18:04.712Z,31.23
2018-11-26T15:20:33.356Z,31.80
2018-11-26T15:23:03.023Z,33.00
2018-11-26T15:25:33.033Z,31.47
2018-11-26T15:28:06.331Z,32.27
2018-11-26T15:30:35.759Z,30.00
2018-11-26T15:33:04.598Z,33.83
2018-11-26T15:35:36.972Z,31.17
2018-11-26T15:38:05.714Z,30.03
2018-11-26T15:40:40.736Z,31.87
2018-11-26T15:43:09.256Z,33.83
2018-11-26T15:45:38.130Z,32.00
2018-11-26T15:48:11.734Z,33.43
2018-11-26T15:50:51.193Z,29.43
2018-11-26T15:53:20.254Z,33.60
2018-11-26T15:55:48.949Z,30.27
2018-11-26T15:58:17.440Z,33.20
2018-11-26T16:00:46.227Z,33.67
2018-11-26T16:03:14.896Z,32.50
2018-11-26T16:05:44.635Z,31.23
2018-11-26T16:08:23.300Z,33.50
2018-11-26T16:10:51.968Z,33.00
2018-11-26T16:13:20.475Z,30.73
2018-11-26T16:15:49.101Z,32.07
2018-11-26T16:18:19.248Z,31.23
2018-11-26T16:20:48.146Z,33.77
2018-11-26T16:23:16.676Z,32.93
2018-11-26T16:25:47.525Z,29.30
2018-11-26T16:28:23.646Z,33.10
2018-11-26T16:30:52.535Z,32.57
2018-11-26T16:33:21.158Z,31.90
2018-11-26T16:35:49.693Z,31.73
2018-11-26T16:38:18.558Z,30.33
2018-11-26T16:40:47.269Z,32.90
2018-11-26T16:43:15.804Z,31.67
2018-11-26T16:45:44.400Z,32.37
2018-11-26T16:48:13.063Z,31.43
2018-11-26T16:50:42.877Z,31.70
2018-11-26T16:53:11.397Z,32.53
2018-11-26T16:55:39.995Z,32.50
2018-11-26T16:58:08.505Z,31.07
2018-11-26T17:00:37.659Z,30.10
2018-11-26T17:03:06.513Z,29.63
2018-11-26T17:05:36.368Z,32.87
2018-11-26T17:08:05.758Z,31.27
2018-11-26T17:10:34.224Z,30.57
2018-11-26T17:13:02.748Z,32.83
2018-11-26T17:15:31.183Z,32.17
2018-11-26T17:18:00.057Z,33.27
2018-11-26T17:20:29.663Z,32.00
2018-11-26T17:22:58.945Z,32.90
2018-11-26T17:25:29.582Z,30.50
2018-11-26T17:27:58.144Z,33.50
2018-11-26T17:30:27.680Z,33.13
2018-11-26T17:32:59.301Z,33.57
2018-11-26T17:35:28.328Z,32.47
2018-11-26T17:37:56.903Z,32.87
2018-11-26T17:40:25.986Z,32.80
2018-11-26T17:42:56.355Z,30.37
2018-11-26T17:45:25.605Z,31.43
2018-11-26T17:47:59.296Z,32.37
2018-11-26T17:50:35.384Z,32.60
2018-11-26T17:53:04.224Z,32.30
2018-11-26T17:55:32.740Z,31.27
2018-11-26T17:58:01.334Z,32.87
2018-11-26T18:00:32.209Z,32.50
2018-11-26T18:03:00.807Z,33.23
2018-11-26T18:05:30.463Z,30.93
2018-11-26T18:08:04.462Z,35.43
2018-11-26T18:10:32.931Z,33.27
2018-11-26T18:13:01.404Z,28.50
2018-11-26T18:15:29.959Z,31.97
2018-11-26T18:17:58.456Z,33.03
2018-11-26T18:20:33.698Z,32.87
2018-11-26T18:23:02.159Z,29.37
2018-11-26T18:25:30.638Z,32.63
2018-11-26T18:28:01.179Z,31.57
2018-11-26T18:31:01.953Z,33.37
2018-11-26T18:33:30.506Z,30.70
2018-11-26T18:35:59.027Z,31.97
2018-11-26T18:38:27.472Z,33.40
2018-11-26T18:40:56.968Z,32.30
2018-11-26T18:43:25.415Z,30.07
2018-11-26T18:45:53.925Z,30.10
2018-11-26T18:48:22.514Z,31.93
2018-11-26T18:50:50.893Z,34.30
2018-11-26T18:53:19.499Z,32.83
2018-11-26T18:55:47.989Z,31.23
2018-11-26T18:58:16.508Z,32.67
2018-11-26T19:00:47.774Z,31.87
2018-11-26T19:03:18.883Z,30.87
2018-11-26T19:05:48.471Z,32.87
2018-11-26T19:08:17.082Z,31.23
2018-11-26T19:10:46.155Z,32.60
2018-11-26T19:13:17.642Z,32.60
2018-11-26T19:15:47.780Z,32.40
2018-11-26T19:18:19.912Z,33.57
2018-11-26T19:20:48.414Z,35.00
2018-11-26T19:23:16.968Z,32.63
2018-11-26T19:25:46.244Z,33.63
2018-11-26T19:28:20.218Z,33.53
2018-11-26T19:30:43.428Z,35.67
2018-11-26T19:33:12.370Z,32.53
2018-11-26T19:35:41.077Z,34.60
2018-11-26T19:38:09.653Z,33.63
2018-11-26T19:40:39.547Z,33.83
2018-11-26T19:43:08.560Z,34.40
2018-11-26T19:45:37.804Z,34.00
2018-11-26T19:48:08.473Z,33.57
2018-11-26T19:50:39.861Z,35.83
2018-11-26T19:53:12.295Z,34.47
2018-11-26T19:55:42.176Z,36.00
2018-11-26T19:58:10.834Z,32.63
2018-11-26T20:00:39.648Z,35.53
2018-11-26T20:03:19.344Z,35.30
2018-11-26T20:05:53.212Z,33.10
2018-11-26T20:08:21.692Z,36.73
2018-11-26T20:10:50.323Z,33.10
2018-11-26T20:13:18.805Z,33.50
2018-11-26T20:15:47.290Z,35.87
2018-11-26T20:18:15.826Z,36.20
2018-11-26T20:20:44.371Z,34.00
2018-11-26T20:23:12.903Z,33.97
2018-11-26T20:25:42.279Z,34.00
2018-11-26T20:28:10.790Z,36.90
2018-11-26T20:30:39.376Z,39.33
2018-11-26T20:33:08.316Z,33.73
2018-11-26T20:35:36.914Z,35.97
2018-11-26T20:38:06.040Z,33.97
2018-11-26T20:40:34.635Z,33.63
2018-11-26T20:43:03.152Z,33.27
2018-11-26T20:45:31.734Z,36.30
2018-11-26T20:48:00.196Z,33.87
2018-11-26T20:50:29.485Z,36.10
2018-11-26T20:52:57.968Z,34.33
2018-11-26T20:55:26.822Z,34.87
2018-11-26T20:57:56.377Z,38.50
2018-11-26T21:00:26.812Z,35.33
2018-11-26T21:03:01.451Z,35.77
2018-11-26T21:05:30.060Z,35.00
2018-11-26T21:07:58.561Z,35.53
2018-11-26T21:10:27.144Z,35.97
2018-11-26T21:12:55.667Z,38.03
2018-11-26T21:15:24.185Z,34.27
2018-11-26T21:17:53.524Z,35.17
2018-11-26T21:20:24.743Z,34.73
2018-11-26T21:22:53.528Z,35.87
2018-11-26T21:25:22.145Z,36.17
2018-11-26T21:27:50.609Z,35.73
2018-11-26T21:30:21.082Z,39.60
2018-11-26T21:32:49.639Z,37.70
2018-11-26T21:35:19.288Z,35.60
2018-11-26T21:37:49.326Z,33.87
2018-11-26T21:40:20.538Z,34.10
2018-11-26T21:42:49.430Z,36.40
2018-11-26T21:45:19.579Z,36.87
2018-11-26T21:47:48.057Z,37.10
2018-11-26T21:50:16.644Z,36.57
2018-11-26T21:52:45.441Z,36.70
2018-11-26T21:55:16.160Z,34.80
2018-11-26T21:57:44.703Z,35.70
2018-11-26T22:00:16.853Z,36.33
2018-11-26T22:02:45.439Z,33.27
2018-11-26T22:05:13.951Z,36.40
2018-11-26T22:07:42.463Z,35.47
2018-11-26T22:10:14.415Z,35.83
2018-11-26T22:12:44.030Z,33.93
2018-11-26T22:15:13.367Z,33.80
2018-11-26T22:17:42.368Z,36.17
2018-11-26T22:20:16.451Z,35.40
2018-11-26T22:22:44.943Z,34.53
2018-11-26T22:25:13.447Z,33.77
2018-11-26T22:27:41.985Z,33.77
2018-11-26T22:30:18.961Z,39.33
2018-11-26T22:32:47.508Z,33.10
2018-11-26T22:35:16.000Z,35.30
2018-11-26T22:37:44.506Z,37.53
2018-11-26T22:40:17.203Z,36.43
2018-11-26T22:42:46.462Z,39.87
2018-11-26T22:45:33.085Z,37.60
2018-11-26T22:48:04.407Z,37.27
2018-11-26T22:50:33.046Z,34.07
2018-11-26T22:53:07.960Z,34.73
2018-11-26T22:55:36.712Z,35.87
2018-11-26T22:58:07.468Z,35.37
2018-11-26T23:00:42.918Z,36.83
2018-11-26T23:03:13.205Z,35.00
2018-11-26T23:05:41.663Z,33.77
2018-11-26T23:08:10.145Z,37.83
2018-11-26T23:10:38.672Z,36.70
2018-11-26T23:13:08.251Z,34.93
2018-11-26T23:15:36.779Z,37.57
2018-11-26T23:18:05.929Z,37.13
2018-11-26T23:20:34.418Z,33.80
2018-11-26T23:23:02.976Z,34.30
2018-11-26T23:25:31.463Z,35.53
2018-11-26T23:27:59.986Z,34.53
2018-11-26T23:30:29.489Z,35.50
2018-11-26T23:32:59.093Z,35.80
2018-11-26T23:35:27.623Z,35.23
2018-11-26T23:37:56.144Z,32.50
2018-11-26T23:40:24.678Z,35.10
2018-11-26T23:42:53.212Z,35.50
2018-11-26T23:45:23.741Z,36.87
2018-11-26T23:47:52.263Z,36.70
2018-11-26T23:50:20.948Z,32.90
2018-11-26T23:52:49.409Z,36.27
2018-11-26T23:55:19.093Z,35.10
2018-11-26T23:57:47.596Z,34.70
